UAL729 KEWR-KPBI
Flight info
| Callsign | UAL729 |
|---|---|
| Flight time | 2h 22m |
| Altitude | 34000 |
| Route | ELVAE NECCK WHITE Q409 CRPLR EARZZ Q131 WAALT Y289 DULEE CLMNT2 |
| Aircraft | B739/M-SDE2E3FGHIRWXY/LB1 |
Departure
| Time | 2026-04-25 13:38 |
|---|---|
| Airport | Newark Liberty International Airport (KEWR) |
Arrival
| Time | 2026-04-25 16:01 |
|---|---|
| Airport | Palm Beach International Airport (KPBI) |
| Time | Latitude | Longitude | Altitude | Speed | Heading |
|---|---|---|---|---|---|
| 2026-04-25 12:59 | 40.69540 | -74.17571 | 26 ft | 0 kts | 186° |
| 2026-04-25 13:25 | 40.69564 | -74.17564 | 26 ft | 4 kts | 206° |
| 2026-04-25 13:25 | 40.69584 | -74.17543 | 26 ft | 4 kts | 234° |
| 2026-04-25 13:25 | 40.69599 | -74.17514 | 26 ft | 4 kts | 231° |
| 2026-04-25 13:25 | 40.69604 | -74.17505 | 26 ft | 0 kts | 223° |
| 2026-04-25 13:28 | 40.69600 | -74.17509 | 26 ft | 2 kts | 204° |
| 2026-04-25 13:28 | 40.69594 | -74.17509 | 26 ft | 2 kts | 169° |
| 2026-04-25 13:28 | 40.69600 | -74.17478 | 26 ft | 6 kts | 37° |
| 2026-04-25 13:28 | 40.69658 | -74.17416 | 26 ft | 15 kts | 47° |
| 2026-04-25 13:29 | 40.69718 | -74.17351 | 26 ft | 10 kts | 27° |
| 2026-04-25 13:29 | 40.69735 | -74.17341 | 26 ft | 0 kts | 22° |
| 2026-04-25 13:29 | 40.69736 | -74.17341 | 26 ft | 1 kts | 22° |
| 2026-04-25 13:30 | 40.69833 | -74.17242 | 26 ft | 13 kts | 43° |
| 2026-04-25 13:30 | 40.69863 | -74.17177 | 26 ft | 5 kts | 138° |
| 2026-04-25 13:30 | 40.69819 | -74.17147 | 26 ft | 11 kts | 156° |
| 2026-04-25 13:31 | 40.69621 | -74.17013 | 26 ft | 19 kts | 162° |
| 2026-04-25 13:31 | 40.69505 | -74.16984 | 26 ft | 18 kts | 171° |
| 2026-04-25 13:31 | 40.69363 | -74.16976 | 26 ft | 23 kts | 187° |
| 2026-04-25 13:31 | 40.69199 | -74.17048 | 26 ft | 28 kts | 206° |
| 2026-04-25 13:32 | 40.69023 | -74.17161 | 26 ft | 27 kts | 205° |
| 2026-04-25 13:32 | 40.68858 | -74.17265 | 26 ft | 25 kts | 206° |
| 2026-04-25 13:32 | 40.68710 | -74.17366 | 26 ft | 23 kts | 214° |
| 2026-04-25 13:32 | 40.68572 | -74.17458 | 26 ft | 22 kts | 200° |
| 2026-04-25 13:33 | 40.68466 | -74.17514 | 26 ft | 14 kts | 204° |
| 2026-04-25 13:33 | 40.68373 | -74.17570 | 26 ft | 16 kts | 206° |
| 2026-04-25 13:33 | 40.68261 | -74.17642 | 26 ft | 19 kts | 206° |
| 2026-04-25 13:33 | 40.68177 | -74.17696 | 26 ft | 21 kts | 205° |
| 2026-04-25 13:34 | 40.67996 | -74.17809 | 26 ft | 21 kts | 206° |
| 2026-04-25 13:34 | 40.67868 | -74.17893 | 26 ft | 20 kts | 207° |
| 2026-04-25 13:34 | 40.67744 | -74.17970 | 26 ft | 19 kts | 204° |
| 2026-04-25 13:34 | 40.67653 | -74.18024 | 26 ft | 5 kts | 208° |
| 2026-04-25 13:35 | 40.67629 | -74.18041 | 26 ft | 0 kts | 209° |
| 2026-04-25 13:36 | 40.67617 | -74.18049 | 26 ft | 7 kts | 198° |
| 2026-04-25 13:36 | 40.67573 | -74.18003 | 26 ft | 12 kts | 127° |
| 2026-04-25 13:37 | 40.67573 | -74.17925 | 26 ft | 8 kts | 43° |
| 2026-04-25 13:37 | 40.67595 | -74.17908 | 26 ft | 0 kts | 26° |
| 2026-04-25 13:37 | 40.67611 | -74.17897 | 26 ft | 10 kts | 26° |
| 2026-04-25 13:37 | 40.67864 | -74.17735 | 26 ft | 74 kts | 26° |
| 2026-04-25 13:38 | 40.68522 | -74.17317 | 26 ft | 133 kts | 25° |
| 2026-04-25 13:38 | 40.69506 | -74.16694 | 43 ft | 182 kts | 25° |
| 2026-04-25 13:38 | 40.70692 | -74.15990 | 649 ft | 188 kts | 28° |
| 2026-04-25 13:38 | 40.71799 | -74.15100 | 1434 ft | 188 kts | 42° |
| 2026-04-25 13:39 | 40.72821 | -74.13931 | 1931 ft | 203 kts | 46° |
| 2026-04-25 13:39 | 40.73928 | -74.12596 | 2350 ft | 224 kts | 47° |
| 2026-04-25 13:39 | 40.75079 | -74.11202 | 3010 ft | 233 kts | 44° |
| 2026-04-25 13:39 | 40.76552 | -74.10135 | 3588 ft | 248 kts | 22° |
| 2026-04-25 13:40 | 40.78280 | -74.09742 | 4166 ft | 264 kts | 3° |
| 2026-04-25 13:40 | 40.80140 | -74.10189 | 4596 ft | 282 kts | 339° |
| 2026-04-25 13:40 | 40.81781 | -74.11585 | 5086 ft | 280 kts | 315° |
| 2026-04-25 13:40 | 40.82943 | -74.13662 | 5738 ft | 277 kts | 295° |
| 2026-04-25 13:41 | 40.83598 | -74.16067 | 5986 ft | 286 kts | 280° |
| 2026-04-25 13:41 | 40.83838 | -74.18669 | 5976 ft | 282 kts | 274° |
| 2026-04-25 13:41 | 40.83982 | -74.21216 | 5983 ft | 274 kts | 262° |
| 2026-04-25 13:41 | 40.83435 | -74.23562 | 6055 ft | 267 kts | 240° |
| 2026-04-25 13:42 | 40.82270 | -74.25485 | 5974 ft | 271 kts | 219° |
| 2026-04-25 13:42 | 40.80644 | -74.26646 | 5907 ft | 267 kts | 194° |
| 2026-04-25 13:42 | 40.78811 | -74.26827 | 5974 ft | 264 kts | 181° |
| 2026-04-25 13:42 | 40.77028 | -74.26874 | 5952 ft | 264 kts | 182° |
| 2026-04-25 13:43 | 40.75192 | -74.26938 | 5963 ft | 264 kts | 182° |
| 2026-04-25 13:43 | 40.73359 | -74.27000 | 5967 ft | 263 kts | 181° |
| 2026-04-25 13:43 | 40.71517 | -74.27062 | 5982 ft | 266 kts | 182° |
| 2026-04-25 13:43 | 40.69666 | -74.27123 | 5990 ft | 265 kts | 182° |
| 2026-04-25 13:44 | 40.67807 | -74.27181 | 5999 ft | 269 kts | 181° |
| 2026-04-25 13:44 | 40.65937 | -74.27242 | 5997 ft | 267 kts | 182° |
| 2026-04-25 13:44 | 40.64099 | -74.27301 | 5996 ft | 263 kts | 182° |
| 2026-04-25 13:44 | 40.62249 | -74.27360 | 6001 ft | 268 kts | 181° |
| 2026-04-25 13:45 | 40.60416 | -74.27418 | 5998 ft | 265 kts | 182° |
| 2026-04-25 13:45 | 40.58583 | -74.27476 | 6391 ft | 263 kts | 181° |
| 2026-04-25 13:45 | 40.56743 | -74.27462 | 7217 ft | 267 kts | 179° |
| 2026-04-25 13:45 | 40.54858 | -74.27381 | 7906 ft | 274 kts | 180° |
| 2026-04-25 13:46 | 40.52921 | -74.27296 | 8562 ft | 283 kts | 180° |
| 2026-04-25 13:46 | 40.50929 | -74.27206 | 9264 ft | 288 kts | 181° |
| 2026-04-25 13:46 | 40.48907 | -74.27122 | 9971 ft | 293 kts | 181° |
| 2026-04-25 13:46 | 40.46847 | -74.27035 | 10581 ft | 301 kts | 181° |
| 2026-04-25 13:47 | 40.44697 | -74.26946 | 10974 ft | 318 kts | 182° |
| 2026-04-25 13:47 | 40.42412 | -74.26851 | 11255 ft | 337 kts | 182° |
| 2026-04-25 13:47 | 40.39996 | -74.26755 | 11536 ft | 356 kts | 181° |
| 2026-04-25 13:47 | 40.37503 | -74.26648 | 11925 ft | 369 kts | 182° |
| 2026-04-25 13:48 | 40.34921 | -74.26539 | 12497 ft | 375 kts | 182° |
| 2026-04-25 13:48 | 40.32287 | -74.26427 | 13155 ft | 379 kts | 182° |
| 2026-04-25 13:48 | 40.29641 | -74.26313 | 13794 ft | 383 kts | 182° |
| 2026-04-25 13:48 | 40.27115 | -74.26207 | 14380 ft | 386 kts | 182° |
| 2026-04-25 13:49 | 40.25133 | -74.26120 | 14829 ft | 389 kts | 182° |
| 2026-04-25 13:49 | 40.22452 | -74.26010 | 15440 ft | 393 kts | 182° |
| 2026-04-25 13:49 | 40.19703 | -74.25894 | 16015 ft | 397 kts | 182° |
| 2026-04-25 13:49 | 40.16932 | -74.25778 | 16582 ft | 400 kts | 182° |
| 2026-04-25 13:50 | 40.14127 | -74.25661 | 17140 ft | 404 kts | 182° |
| 2026-04-25 13:50 | 40.11309 | -74.25543 | 17683 ft | 407 kts | 182° |
| 2026-04-25 13:50 | 40.08460 | -74.25424 | 18216 ft | 411 kts | 182° |
| 2026-04-25 13:50 | 40.05592 | -74.25305 | 18703 ft | 415 kts | 182° |
| 2026-04-25 13:51 | 40.02711 | -74.25506 | 19155 ft | 413 kts | 194° |
| 2026-04-25 13:51 | 39.99971 | -74.26546 | 19615 ft | 408 kts | 208° |
| 2026-04-25 13:51 | 39.97470 | -74.28254 | 20068 ft | 406 kts | 217° |
| 2026-04-25 13:51 | 39.95124 | -74.30307 | 20512 ft | 406 kts | 221° |
| 2026-04-25 13:52 | 39.92850 | -74.32524 | 20967 ft | 408 kts | 223° |
| 2026-04-25 13:52 | 39.90576 | -74.34746 | 21384 ft | 412 kts | 222° |
| 2026-04-25 13:52 | 39.88286 | -74.36940 | 21791 ft | 415 kts | 222° |
| 2026-04-25 13:52 | 39.85917 | -74.39194 | 22180 ft | 418 kts | 222° |
| 2026-04-25 13:53 | 39.83562 | -74.41431 | 22591 ft | 420 kts | 222° |
| 2026-04-25 13:53 | 39.81321 | -74.43790 | 22943 ft | 419 kts | 227° |
| 2026-04-25 13:53 | 39.79209 | -74.46407 | 23319 ft | 419 kts | 231° |
| 2026-04-25 13:53 | 39.77164 | -74.49125 | 23663 ft | 421 kts | 232° |
| 2026-04-25 13:54 | 39.75117 | -74.51869 | 23999 ft | 424 kts | 232° |
| 2026-04-25 13:54 | 39.73052 | -74.54622 | 24338 ft | 426 kts | 231° |
| 2026-04-25 13:54 | 39.70974 | -74.57379 | 24701 ft | 427 kts | 231° |
| 2026-04-25 13:54 | 39.68888 | -74.60140 | 25029 ft | 429 kts | 231° |
| 2026-04-25 13:55 | 39.66787 | -74.62915 | 25340 ft | 431 kts | 231° |
| 2026-04-25 13:55 | 39.64679 | -74.65696 | 25685 ft | 432 kts | 231° |
| 2026-04-25 13:55 | 39.62562 | -74.68485 | 25992 ft | 434 kts | 231° |
| 2026-04-25 13:55 | 39.60463 | -74.71247 | 26267 ft | 436 kts | 231° |
| 2026-04-25 13:56 | 39.58334 | -74.74048 | 26542 ft | 437 kts | 231° |
| 2026-04-25 13:56 | 39.56206 | -74.76873 | 26829 ft | 438 kts | 231° |
| 2026-04-25 13:56 | 39.54073 | -74.79706 | 27096 ft | 440 kts | 231° |
| 2026-04-25 13:56 | 39.51933 | -74.82550 | 27366 ft | 441 kts | 232° |
| 2026-04-25 13:57 | 39.49787 | -74.85403 | 27613 ft | 443 kts | 231° |
| 2026-04-25 13:57 | 39.48355 | -74.87290 | 27755 ft | 444 kts | 231° |
| 2026-04-25 13:57 | 39.45808 | -74.90631 | 28069 ft | 445 kts | 231° |
| 2026-04-25 13:57 | 39.43653 | -74.93447 | 28283 ft | 446 kts | 231° |
| 2026-04-25 13:58 | 39.41464 | -74.96303 | 28500 ft | 448 kts | 231° |
| 2026-04-25 13:58 | 39.39270 | -74.99163 | 28704 ft | 449 kts | 231° |
| 2026-04-25 13:58 | 39.37064 | -75.02037 | 28968 ft | 449 kts | 231° |
| 2026-04-25 13:58 | 39.34865 | -75.04899 | 29294 ft | 447 kts | 231° |
| 2026-04-25 13:59 | 39.32679 | -75.07742 | 29632 ft | 445 kts | 231° |
| 2026-04-25 13:59 | 39.30489 | -75.10592 | 29883 ft | 445 kts | 231° |
| 2026-04-25 13:59 | 39.28277 | -75.13381 | 30154 ft | 446 kts | 229° |
| 2026-04-25 13:59 | 39.25967 | -75.16075 | 30408 ft | 447 kts | 227° |
| 2026-04-25 14:00 | 39.23655 | -75.18740 | 30656 ft | 446 kts | 227° |
| 2026-04-25 14:00 | 39.21347 | -75.21414 | 30896 ft | 445 kts | 228° |
| 2026-04-25 14:00 | 39.19075 | -75.24051 | 31147 ft | 444 kts | 228° |
| 2026-04-25 14:00 | 39.16777 | -75.26720 | 31371 ft | 444 kts | 228° |
| 2026-04-25 14:01 | 39.14488 | -75.29378 | 31596 ft | 443 kts | 228° |
| 2026-04-25 14:01 | 39.12197 | -75.32039 | 31815 ft | 443 kts | 228° |
| 2026-04-25 14:01 | 39.09911 | -75.34692 | 31986 ft | 443 kts | 228° |
| 2026-04-25 14:02 | 39.05293 | -75.40024 | 32008 ft | 446 kts | 226° |
| 2026-04-25 14:02 | 39.02704 | -75.42277 | 32011 ft | 454 kts | 214° |
| 2026-04-25 14:02 | 38.99754 | -75.43850 | 32074 ft | 465 kts | 202° |
| 2026-04-25 14:02 | 38.97661 | -75.44525 | 32213 ft | 469 kts | 197° |
| 2026-04-25 14:03 | 38.93380 | -75.45377 | 32521 ft | 472 kts | 192° |
| 2026-04-25 14:03 | 38.90112 | -75.45793 | 32702 ft | 472 kts | 191° |
| 2026-04-25 14:03 | 38.86847 | -75.46215 | 32896 ft | 471 kts | 191° |
| 2026-04-25 14:03 | 38.83587 | -75.46659 | 33082 ft | 471 kts | 192° |
| 2026-04-25 14:04 | 38.80312 | -75.47112 | 33263 ft | 470 kts | 192° |
| 2026-04-25 14:04 | 38.77067 | -75.47563 | 33432 ft | 470 kts | 192° |
| 2026-04-25 14:04 | 38.73813 | -75.48017 | 33597 ft | 470 kts | 192° |
| 2026-04-25 14:04 | 38.70560 | -75.48466 | 33742 ft | 470 kts | 191° |
| 2026-04-25 14:05 | 38.67313 | -75.48903 | 33894 ft | 470 kts | 192° |
| 2026-04-25 14:05 | 38.60798 | -75.49787 | 33989 ft | 471 kts | 191° |
| 2026-04-25 14:06 | 38.54283 | -75.50665 | 33990 ft | 469 kts | 192° |
| 2026-04-25 14:06 | 38.47792 | -75.51537 | 33984 ft | 468 kts | 191° |
| 2026-04-25 14:07 | 38.41310 | -75.52407 | 33981 ft | 468 kts | 191° |
| 2026-04-25 14:07 | 38.34994 | -75.53866 | 33979 ft | 458 kts | 204° |
| 2026-04-25 14:08 | 38.29363 | -75.57407 | 33980 ft | 448 kts | 218° |
| 2026-04-25 14:08 | 38.24195 | -75.61809 | 33977 ft | 446 kts | 220° |
| 2026-04-25 14:09 | 38.19076 | -75.66277 | 33973 ft | 445 kts | 220° |
| 2026-04-25 14:09 | 38.13995 | -75.70689 | 33969 ft | 445 kts | 220° |
| 2026-04-25 14:10 | 38.08875 | -75.75122 | 33965 ft | 445 kts | 220° |
| 2026-04-25 14:10 | 38.03758 | -75.79566 | 33959 ft | 445 kts | 220° |
| 2026-04-25 14:11 | 37.98656 | -75.84003 | 33952 ft | 445 kts | 220° |
| 2026-04-25 14:11 | 37.93559 | -75.88410 | 33941 ft | 445 kts | 220° |
| 2026-04-25 14:12 | 37.88444 | -75.92820 | 33935 ft | 445 kts | 220° |
| 2026-04-25 14:12 | 37.83326 | -75.97253 | 33931 ft | 445 kts | 220° |
| 2026-04-25 14:13 | 37.78199 | -76.01655 | 33930 ft | 445 kts | 219° |
| 2026-04-25 14:13 | 37.73063 | -76.06048 | 33931 ft | 446 kts | 219° |
| 2026-04-25 14:14 | 37.67928 | -76.10433 | 33932 ft | 446 kts | 219° |
| 2026-04-25 14:14 | 37.62748 | -76.14747 | 33932 ft | 448 kts | 216° |
| 2026-04-25 14:15 | 37.57058 | -76.18128 | 33927 ft | 456 kts | 205° |
| 2026-04-25 14:15 | 37.51025 | -76.20675 | 33923 ft | 457 kts | 203° |
| 2026-04-25 14:16 | 37.45007 | -76.23129 | 33919 ft | 458 kts | 203° |
| 2026-04-25 14:16 | 37.38950 | -76.25616 | 33914 ft | 458 kts | 203° |
| 2026-04-25 14:17 | 37.32890 | -76.28109 | 33915 ft | 458 kts | 202° |
| 2026-04-25 14:17 | 37.26872 | -76.30592 | 33912 ft | 457 kts | 203° |
| 2026-04-25 14:18 | 37.20825 | -76.33098 | 33905 ft | 458 kts | 202° |
| 2026-04-25 14:18 | 37.14753 | -76.35603 | 33898 ft | 458 kts | 202° |
| 2026-04-25 14:19 | 37.08816 | -76.38044 | 33893 ft | 458 kts | 202° |
| 2026-04-25 14:19 | 37.02784 | -76.40518 | 33893 ft | 458 kts | 202° |
| 2026-04-25 14:20 | 36.96723 | -76.43001 | 33901 ft | 458 kts | 202° |
| 2026-04-25 14:20 | 36.90663 | -76.45478 | 33908 ft | 458 kts | 202° |
| 2026-04-25 14:21 | 36.84580 | -76.47960 | 33907 ft | 459 kts | 201° |
| 2026-04-25 14:21 | 36.78505 | -76.50435 | 33903 ft | 459 kts | 201° |
| 2026-04-25 14:22 | 36.72424 | -76.52908 | 33903 ft | 459 kts | 201° |
| 2026-04-25 14:22 | 36.66380 | -76.55362 | 33909 ft | 459 kts | 201° |
| 2026-04-25 14:23 | 36.60306 | -76.57825 | 33909 ft | 459 kts | 201° |
| 2026-04-25 14:23 | 36.54215 | -76.60290 | 33906 ft | 459 kts | 201° |
| 2026-04-25 14:24 | 36.48134 | -76.62747 | 33904 ft | 460 kts | 201° |
| 2026-04-25 14:24 | 36.42044 | -76.65203 | 33902 ft | 460 kts | 201° |
| 2026-04-25 14:25 | 36.35954 | -76.67657 | 33901 ft | 460 kts | 201° |
| 2026-04-25 14:25 | 36.29874 | -76.70101 | 33902 ft | 460 kts | 201° |
| 2026-04-25 14:26 | 36.23822 | -76.72530 | 33903 ft | 460 kts | 201° |
| 2026-04-25 14:26 | 36.17737 | -76.74982 | 33903 ft | 460 kts | 201° |
| 2026-04-25 14:27 | 36.11642 | -76.77421 | 33901 ft | 460 kts | 201° |
| 2026-04-25 14:27 | 36.05555 | -76.79849 | 33895 ft | 460 kts | 201° |
| 2026-04-25 14:28 | 35.99451 | -76.82278 | 33895 ft | 460 kts | 201° |
| 2026-04-25 14:28 | 35.93410 | -76.84683 | 33894 ft | 460 kts | 200° |
| 2026-04-25 14:29 | 35.87540 | -76.87780 | 33893 ft | 458 kts | 208° |
| 2026-04-25 14:29 | 35.81831 | -76.91294 | 33896 ft | 457 kts | 208° |
| 2026-04-25 14:30 | 35.76120 | -76.94803 | 33896 ft | 457 kts | 208° |
| 2026-04-25 14:30 | 35.67576 | -77.00036 | 33898 ft | 457 kts | 208° |
| 2026-04-25 14:31 | 35.61874 | -77.03522 | 33899 ft | 457 kts | 208° |
| 2026-04-25 14:31 | 35.56215 | -77.07002 | 33900 ft | 457 kts | 208° |
| 2026-04-25 14:32 | 35.50520 | -77.10495 | 33900 ft | 457 kts | 208° |
| 2026-04-25 14:32 | 35.44826 | -77.13972 | 33901 ft | 457 kts | 208° |
| 2026-04-25 14:33 | 35.39128 | -77.17444 | 33904 ft | 457 kts | 208° |
| 2026-04-25 14:33 | 35.33427 | -77.20911 | 33908 ft | 457 kts | 208° |
| 2026-04-25 14:34 | 35.27764 | -77.24349 | 33912 ft | 457 kts | 208° |
| 2026-04-25 14:34 | 35.22064 | -77.27803 | 33920 ft | 457 kts | 208° |
| 2026-04-25 14:35 | 35.17326 | -77.30671 | 33923 ft | 457 kts | 208° |
| 2026-04-25 14:35 | 35.11625 | -77.34116 | 33924 ft | 457 kts | 208° |
| 2026-04-25 14:36 | 35.05927 | -77.37555 | 33925 ft | 457 kts | 208° |
| 2026-04-25 14:36 | 35.00230 | -77.40987 | 33928 ft | 457 kts | 208° |
| 2026-04-25 14:37 | 34.94515 | -77.44426 | 33928 ft | 457 kts | 207° |
| 2026-04-25 14:37 | 34.88804 | -77.47856 | 33929 ft | 457 kts | 207° |
| 2026-04-25 14:38 | 34.83102 | -77.51288 | 33930 ft | 457 kts | 207° |
| 2026-04-25 14:38 | 34.77389 | -77.54717 | 33930 ft | 457 kts | 207° |
| 2026-04-25 14:39 | 34.71679 | -77.58125 | 33930 ft | 457 kts | 207° |
| 2026-04-25 14:39 | 34.65990 | -77.61515 | 33930 ft | 457 kts | 207° |
| 2026-04-25 14:40 | 34.60273 | -77.64917 | 33930 ft | 458 kts | 207° |
| 2026-04-25 14:40 | 34.54351 | -77.67753 | 33930 ft | 458 kts | 196° |
| 2026-04-25 14:41 | 34.48131 | -77.69500 | 33930 ft | 459 kts | 192° |
| 2026-04-25 14:41 | 34.41875 | -77.71049 | 33930 ft | 459 kts | 192° |
| 2026-04-25 14:42 | 34.36678 | -77.72358 | 33930 ft | 458 kts | 192° |
| 2026-04-25 14:42 | 34.29385 | -77.74205 | 33930 ft | 458 kts | 192° |
| 2026-04-25 14:43 | 34.23151 | -77.75785 | 33931 ft | 458 kts | 192° |
| 2026-04-25 14:43 | 34.16937 | -77.77370 | 33931 ft | 458 kts | 192° |
| 2026-04-25 14:44 | 34.10696 | -77.78955 | 33932 ft | 458 kts | 192° |
| 2026-04-25 14:44 | 34.04454 | -77.80542 | 33934 ft | 458 kts | 192° |
| 2026-04-25 14:45 | 33.98209 | -77.82118 | 33936 ft | 458 kts | 192° |
| 2026-04-25 14:45 | 33.91971 | -77.83689 | 33938 ft | 458 kts | 192° |
| 2026-04-25 14:46 | 33.85732 | -77.85258 | 33939 ft | 458 kts | 192° |
| 2026-04-25 14:46 | 33.79489 | -77.86828 | 33940 ft | 458 kts | 192° |
| 2026-04-25 14:47 | 33.74365 | -77.88442 | 33940 ft | 458 kts | 197° |
| 2026-04-25 14:47 | 33.67243 | -77.90961 | 33939 ft | 458 kts | 196° |
| 2026-04-25 14:48 | 33.61106 | -77.93051 | 33938 ft | 458 kts | 196° |
| 2026-04-25 14:48 | 33.54973 | -77.95128 | 33938 ft | 457 kts | 196° |
| 2026-04-25 14:49 | 33.48889 | -77.97186 | 33938 ft | 457 kts | 196° |
| 2026-04-25 14:49 | 33.42773 | -77.99250 | 33938 ft | 456 kts | 196° |
| 2026-04-25 14:50 | 33.36655 | -78.01311 | 33938 ft | 458 kts | 196° |
| 2026-04-25 14:50 | 33.30518 | -78.03376 | 33937 ft | 458 kts | 196° |
| 2026-04-25 14:51 | 33.24389 | -78.05435 | 33936 ft | 457 kts | 196° |
| 2026-04-25 14:51 | 33.18261 | -78.07496 | 33936 ft | 457 kts | 196° |
| 2026-04-25 14:52 | 33.12123 | -78.09566 | 33935 ft | 458 kts | 196° |
| 2026-04-25 14:52 | 33.07016 | -78.11280 | 33935 ft | 458 kts | 196° |
| 2026-04-25 14:53 | 32.99859 | -78.13686 | 33935 ft | 457 kts | 196° |
| 2026-04-25 14:53 | 32.93731 | -78.15735 | 33934 ft | 457 kts | 196° |
| 2026-04-25 14:54 | 32.87603 | -78.17777 | 33936 ft | 457 kts | 196° |
| 2026-04-25 14:54 | 32.81483 | -78.19814 | 33944 ft | 456 kts | 196° |
| 2026-04-25 14:55 | 32.75403 | -78.21834 | 33945 ft | 456 kts | 196° |
| 2026-04-25 14:55 | 32.69277 | -78.23863 | 33945 ft | 456 kts | 196° |
| 2026-04-25 14:56 | 32.63160 | -78.25886 | 33945 ft | 456 kts | 196° |
| 2026-04-25 14:56 | 32.57050 | -78.27902 | 33945 ft | 456 kts | 196° |
| 2026-04-25 14:57 | 32.50943 | -78.29909 | 33946 ft | 455 kts | 196° |
| 2026-04-25 14:57 | 32.44870 | -78.31901 | 33949 ft | 456 kts | 196° |
| 2026-04-25 14:58 | 32.38758 | -78.33905 | 33949 ft | 456 kts | 196° |
| 2026-04-25 14:58 | 32.32639 | -78.35911 | 33950 ft | 456 kts | 196° |
| 2026-04-25 14:59 | 32.26513 | -78.37922 | 33950 ft | 455 kts | 196° |
| 2026-04-25 14:59 | 32.20408 | -78.39923 | 33945 ft | 456 kts | 196° |
| 2026-04-25 15:00 | 32.14297 | -78.41923 | 33941 ft | 455 kts | 196° |
| 2026-04-25 15:00 | 32.08217 | -78.43911 | 33941 ft | 455 kts | 196° |
| 2026-04-25 15:01 | 32.02109 | -78.45905 | 33943 ft | 455 kts | 196° |
| 2026-04-25 15:01 | 31.96006 | -78.47909 | 33948 ft | 455 kts | 196° |
| 2026-04-25 15:02 | 31.89899 | -78.49905 | 33945 ft | 455 kts | 196° |
| 2026-04-25 15:02 | 31.83793 | -78.51900 | 33939 ft | 456 kts | 197° |
| 2026-04-25 15:03 | 31.77676 | -78.53894 | 33939 ft | 456 kts | 196° |
| 2026-04-25 15:03 | 31.71553 | -78.55881 | 33939 ft | 456 kts | 196° |
| 2026-04-25 15:04 | 31.65473 | -78.57850 | 33939 ft | 456 kts | 196° |
| 2026-04-25 15:04 | 31.59339 | -78.59835 | 33940 ft | 457 kts | 197° |
| 2026-04-25 15:05 | 31.53211 | -78.61823 | 33940 ft | 457 kts | 197° |
| 2026-04-25 15:06 | 31.44060 | -78.64970 | 33940 ft | 457 kts | 198° |
| 2026-04-25 15:06 | 31.37954 | -78.67063 | 33945 ft | 457 kts | 197° |
| 2026-04-25 15:07 | 31.31833 | -78.69156 | 33945 ft | 457 kts | 197° |
| 2026-04-25 15:07 | 31.25762 | -78.71228 | 33946 ft | 457 kts | 197° |
| 2026-04-25 15:08 | 31.19658 | -78.73314 | 33944 ft | 457 kts | 198° |
| 2026-04-25 15:08 | 31.13545 | -78.75407 | 33950 ft | 458 kts | 198° |
| 2026-04-25 15:09 | 31.07428 | -78.77492 | 33953 ft | 458 kts | 198° |
| 2026-04-25 15:09 | 30.98287 | -78.80601 | 33948 ft | 457 kts | 198° |
| 2026-04-25 15:10 | 30.92177 | -78.82675 | 33949 ft | 457 kts | 198° |
| 2026-04-25 15:11 | 30.83005 | -78.85782 | 33949 ft | 457 kts | 198° |
| 2026-04-25 15:11 | 30.76895 | -78.87848 | 33950 ft | 457 kts | 198° |
| 2026-04-25 15:12 | 30.67727 | -78.90954 | 33960 ft | 461 kts | 198° |
| 2026-04-25 15:12 | 30.63602 | -78.92344 | 33962 ft | 462 kts | 198° |
| 2026-04-25 15:13 | 30.52297 | -78.96145 | 33964 ft | 462 kts | 198° |
| 2026-04-25 15:14 | 30.46124 | -78.98216 | 33965 ft | 461 kts | 198° |
| 2026-04-25 15:14 | 30.39915 | -79.00215 | 33972 ft | 463 kts | 194° |
| 2026-04-25 15:15 | 30.33608 | -79.01763 | 33970 ft | 463 kts | 193° |
| 2026-04-25 15:15 | 30.27350 | -79.03355 | 33971 ft | 463 kts | 194° |
| 2026-04-25 15:16 | 30.21058 | -79.04980 | 33971 ft | 464 kts | 194° |
| 2026-04-25 15:16 | 30.11593 | -79.07466 | 33971 ft | 464 kts | 194° |
| 2026-04-25 15:17 | 30.03206 | -79.09661 | 33972 ft | 464 kts | 194° |
| 2026-04-25 15:18 | 29.95867 | -79.11575 | 33975 ft | 465 kts | 194° |
| 2026-04-25 15:18 | 29.87455 | -79.13766 | 33972 ft | 465 kts | 194° |
| 2026-04-25 15:19 | 29.82207 | -79.15132 | 33965 ft | 465 kts | 194° |
| 2026-04-25 15:19 | 29.74820 | -79.17014 | 33963 ft | 465 kts | 194° |
| 2026-04-25 15:20 | 29.68491 | -79.18625 | 33963 ft | 466 kts | 194° |
| 2026-04-25 15:20 | 29.62163 | -79.20234 | 33962 ft | 465 kts | 194° |
| 2026-04-25 15:21 | 29.55878 | -79.21830 | 33962 ft | 465 kts | 194° |
| 2026-04-25 15:21 | 29.49560 | -79.23433 | 33962 ft | 465 kts | 194° |
| 2026-04-25 15:22 | 29.43229 | -79.25049 | 33958 ft | 465 kts | 194° |
| 2026-04-25 15:22 | 29.36915 | -79.26653 | 33958 ft | 465 kts | 194° |
| 2026-04-25 15:23 | 29.30598 | -79.28255 | 33958 ft | 464 kts | 194° |
| 2026-04-25 15:23 | 29.24278 | -79.29854 | 33958 ft | 464 kts | 194° |
| 2026-04-25 15:24 | 29.18004 | -79.31438 | 33959 ft | 464 kts | 194° |
| 2026-04-25 15:24 | 29.12722 | -79.32772 | 33960 ft | 464 kts | 194° |
| 2026-04-25 15:25 | 29.05396 | -79.34618 | 33960 ft | 464 kts | 194° |
| 2026-04-25 15:25 | 28.99081 | -79.36207 | 33961 ft | 464 kts | 194° |
| 2026-04-25 15:26 | 28.92779 | -79.37791 | 33960 ft | 463 kts | 194° |
| 2026-04-25 15:26 | 28.86504 | -79.39367 | 33959 ft | 463 kts | 194° |
| 2026-04-25 15:27 | 28.80211 | -79.40945 | 33959 ft | 463 kts | 194° |
| 2026-04-25 15:27 | 28.73982 | -79.42505 | 33956 ft | 449 kts | 194° |
| 2026-04-25 15:28 | 28.70957 | -79.43262 | 33956 ft | 442 kts | 194° |
| 2026-04-25 15:28 | 28.64998 | -79.44752 | 33921 ft | 437 kts | 194° |
| 2026-04-25 15:28 | 28.62021 | -79.45496 | 33599 ft | 435 kts | 194° |
| 2026-04-25 15:29 | 28.59079 | -79.46235 | 33217 ft | 431 kts | 194° |
| 2026-04-25 15:29 | 28.56191 | -79.46957 | 32761 ft | 428 kts | 194° |
| 2026-04-25 15:29 | 28.53291 | -79.47680 | 32305 ft | 425 kts | 194° |
| 2026-04-25 15:29 | 28.50412 | -79.48397 | 31853 ft | 423 kts | 194° |
| 2026-04-25 15:30 | 28.47550 | -79.49109 | 31402 ft | 420 kts | 194° |
| 2026-04-25 15:30 | 28.44701 | -79.49818 | 30954 ft | 417 kts | 194° |
| 2026-04-25 15:30 | 28.41873 | -79.50520 | 30509 ft | 415 kts | 194° |
| 2026-04-25 15:30 | 28.39053 | -79.51221 | 30065 ft | 412 kts | 194° |
| 2026-04-25 15:31 | 28.36257 | -79.51915 | 29625 ft | 410 kts | 194° |
| 2026-04-25 15:31 | 28.33480 | -79.52604 | 29186 ft | 407 kts | 194° |
| 2026-04-25 15:31 | 28.30720 | -79.53289 | 28744 ft | 405 kts | 194° |
| 2026-04-25 15:31 | 28.27991 | -79.53999 | 28305 ft | 402 kts | 195° |
| 2026-04-25 15:32 | 28.25279 | -79.54752 | 27867 ft | 399 kts | 195° |
| 2026-04-25 15:32 | 28.22586 | -79.55496 | 27431 ft | 397 kts | 195° |
| 2026-04-25 15:32 | 28.19911 | -79.56229 | 27000 ft | 395 kts | 195° |
| 2026-04-25 15:33 | 28.14602 | -79.57676 | 26144 ft | 390 kts | 196° |
| 2026-04-25 15:33 | 28.11971 | -79.58391 | 25721 ft | 387 kts | 196° |
| 2026-04-25 15:33 | 28.09388 | -79.59093 | 25305 ft | 385 kts | 196° |
| 2026-04-25 15:33 | 28.06789 | -79.59798 | 24887 ft | 383 kts | 196° |
| 2026-04-25 15:34 | 28.04207 | -79.60499 | 24471 ft | 380 kts | 196° |
| 2026-04-25 15:34 | 28.01646 | -79.61194 | 24118 ft | 376 kts | 197° |
| 2026-04-25 15:34 | 27.99131 | -79.61876 | 24017 ft | 366 kts | 197° |
| 2026-04-25 15:34 | 27.97500 | -79.62319 | 23978 ft | 360 kts | 197° |
| 2026-04-25 15:35 | 27.91979 | -79.63820 | 23965 ft | 337 kts | 197° |
| 2026-04-25 15:35 | 27.89725 | -79.64432 | 23963 ft | 327 kts | 197° |
| 2026-04-25 15:35 | 27.87534 | -79.65025 | 23966 ft | 322 kts | 197° |
| 2026-04-25 15:36 | 27.83199 | -79.66197 | 23979 ft | 323 kts | 197° |
| 2026-04-25 15:36 | 27.81012 | -79.66787 | 23982 ft | 323 kts | 197° |
| 2026-04-25 15:36 | 27.78831 | -79.67376 | 23986 ft | 323 kts | 197° |
| 2026-04-25 15:37 | 27.76640 | -79.67968 | 23986 ft | 323 kts | 197° |
| 2026-04-25 15:37 | 27.74457 | -79.68557 | 23986 ft | 323 kts | 197° |
| 2026-04-25 15:37 | 27.72271 | -79.69146 | 23987 ft | 323 kts | 197° |
| 2026-04-25 15:37 | 27.70088 | -79.69735 | 23987 ft | 323 kts | 197° |
| 2026-04-25 15:38 | 27.67930 | -79.70316 | 23988 ft | 323 kts | 197° |
| 2026-04-25 15:38 | 27.65741 | -79.70906 | 23987 ft | 322 kts | 197° |
| 2026-04-25 15:38 | 27.63561 | -79.71495 | 23986 ft | 323 kts | 197° |
| 2026-04-25 15:38 | 27.61376 | -79.72082 | 23983 ft | 322 kts | 197° |
| 2026-04-25 15:39 | 27.59195 | -79.72669 | 23982 ft | 322 kts | 197° |
| 2026-04-25 15:39 | 27.57013 | -79.73255 | 23981 ft | 322 kts | 197° |
| 2026-04-25 15:39 | 27.54828 | -79.73842 | 23981 ft | 322 kts | 197° |
| 2026-04-25 15:39 | 27.52646 | -79.74429 | 23981 ft | 322 kts | 197° |
| 2026-04-25 15:40 | 27.50465 | -79.75020 | 23980 ft | 322 kts | 197° |
| 2026-04-25 15:40 | 27.49759 | -79.75211 | 23980 ft | 322 kts | 197° |
| 2026-04-25 15:40 | 27.46137 | -79.76187 | 23980 ft | 322 kts | 197° |
| 2026-04-25 15:40 | 27.43955 | -79.76773 | 23980 ft | 322 kts | 197° |
| 2026-04-25 15:41 | 27.41780 | -79.77356 | 23980 ft | 322 kts | 197° |
| 2026-04-25 15:41 | 27.39598 | -79.77941 | 23980 ft | 322 kts | 197° |
| 2026-04-25 15:41 | 27.37417 | -79.78525 | 23980 ft | 322 kts | 197° |
| 2026-04-25 15:41 | 27.35241 | -79.79108 | 23979 ft | 322 kts | 197° |
| 2026-04-25 15:42 | 27.33067 | -79.79689 | 23915 ft | 322 kts | 197° |
| 2026-04-25 15:42 | 27.30895 | -79.80270 | 23679 ft | 319 kts | 197° |
| 2026-04-25 15:42 | 27.28730 | -79.80849 | 23255 ft | 322 kts | 197° |
| 2026-04-25 15:42 | 27.26503 | -79.81445 | 22436 ft | 337 kts | 197° |
| 2026-04-25 15:43 | 27.24196 | -79.82061 | 21814 ft | 344 kts | 197° |
| 2026-04-25 15:43 | 27.21873 | -79.82739 | 21414 ft | 342 kts | 201° |
| 2026-04-25 15:43 | 27.19666 | -79.83678 | 21078 ft | 336 kts | 208° |
| 2026-04-25 15:43 | 27.17618 | -79.84830 | 20738 ft | 331 kts | 212° |
| 2026-04-25 15:44 | 27.15601 | -79.86077 | 20378 ft | 329 kts | 213° |
| 2026-04-25 15:44 | 27.13593 | -79.87303 | 20022 ft | 328 kts | 213° |
| 2026-04-25 15:44 | 27.11591 | -79.88507 | 19671 ft | 325 kts | 212° |
| 2026-04-25 15:44 | 27.09596 | -79.89701 | 19319 ft | 323 kts | 212° |
| 2026-04-25 15:45 | 27.07612 | -79.90881 | 18965 ft | 321 kts | 212° |
| 2026-04-25 15:45 | 27.05635 | -79.92056 | 18615 ft | 319 kts | 212° |
| 2026-04-25 15:45 | 27.03677 | -79.93220 | 18259 ft | 318 kts | 212° |
| 2026-04-25 15:45 | 27.03044 | -79.93596 | 18150 ft | 317 kts | 212° |
| 2026-04-25 15:46 | 26.99799 | -79.95526 | 17562 ft | 313 kts | 212° |
| 2026-04-25 15:46 | 26.97878 | -79.96664 | 17204 ft | 312 kts | 212° |
| 2026-04-25 15:46 | 26.95968 | -79.97808 | 16850 ft | 309 kts | 214° |
| 2026-04-25 15:46 | 26.94175 | -79.99111 | 16497 ft | 305 kts | 219° |
| 2026-04-25 15:47 | 26.92513 | -80.00520 | 16143 ft | 303 kts | 221° |
| 2026-04-25 15:47 | 26.90901 | -80.01942 | 15770 ft | 302 kts | 221° |
| 2026-04-25 15:47 | 26.89237 | -80.03388 | 15414 ft | 301 kts | 221° |
| 2026-04-25 15:47 | 26.87583 | -80.04814 | 15057 ft | 299 kts | 221° |
| 2026-04-25 15:48 | 26.85937 | -80.06231 | 14701 ft | 298 kts | 221° |
| 2026-04-25 15:48 | 26.84300 | -80.07645 | 14345 ft | 296 kts | 221° |
| 2026-04-25 15:48 | 26.82676 | -80.09060 | 14003 ft | 294 kts | 222° |
| 2026-04-25 15:48 | 26.81348 | -80.10713 | 13841 ft | 279 kts | 243° |
| 2026-04-25 15:49 | 26.80669 | -80.12673 | 13781 ft | 263 kts | 256° |
| 2026-04-25 15:49 | 26.80315 | -80.14635 | 13648 ft | 253 kts | 264° |
| 2026-04-25 15:49 | 26.80149 | -80.16557 | 13382 ft | 249 kts | 267° |
| 2026-04-25 15:49 | 26.80044 | -80.18496 | 13045 ft | 249 kts | 268° |
| 2026-04-25 15:50 | 26.79891 | -80.20450 | 12516 ft | 257 kts | 266° |
| 2026-04-25 15:50 | 26.79705 | -80.22497 | 11822 ft | 270 kts | 266° |
| 2026-04-25 15:50 | 26.79520 | -80.24629 | 11183 ft | 280 kts | 266° |
| 2026-04-25 15:50 | 26.79375 | -80.26833 | 10558 ft | 288 kts | 269° |
| 2026-04-25 15:51 | 26.79385 | -80.29075 | 9939 ft | 294 kts | 272° |
| 2026-04-25 15:51 | 26.79401 | -80.29839 | 9725 ft | 292 kts | 272° |
| 2026-04-25 15:51 | 26.79498 | -80.33566 | 8684 ft | 284 kts | 272° |
| 2026-04-25 15:51 | 26.79562 | -80.35789 | 8061 ft | 287 kts | 272° |
| 2026-04-25 15:52 | 26.79626 | -80.38008 | 7432 ft | 283 kts | 272° |
| 2026-04-25 15:52 | 26.79688 | -80.40199 | 6804 ft | 279 kts | 272° |
| 2026-04-25 15:52 | 26.79750 | -80.42358 | 6182 ft | 276 kts | 272° |
| 2026-04-25 15:52 | 26.79815 | -80.44500 | 5584 ft | 274 kts | 272° |
| 2026-04-25 15:53 | 26.79630 | -80.46550 | 5297 ft | 257 kts | 249° |
| 2026-04-25 15:53 | 26.78606 | -80.48069 | 5013 ft | 240 kts | 214° |
| 2026-04-25 15:53 | 26.77068 | -80.48602 | 4581 ft | 232 kts | 178° |
| 2026-04-25 15:53 | 26.75596 | -80.47994 | 4121 ft | 227 kts | 141° |
| 2026-04-25 15:54 | 26.74590 | -80.46692 | 3698 ft | 224 kts | 123° |
| 2026-04-25 15:54 | 26.73867 | -80.45128 | 3238 ft | 223 kts | 117° |
| 2026-04-25 15:54 | 26.73255 | -80.43724 | 3103 ft | 223 kts | 116° |
| 2026-04-25 15:54 | 26.72577 | -80.42166 | 3036 ft | 222 kts | 116° |
| 2026-04-25 15:55 | 26.71901 | -80.40618 | 3033 ft | 220 kts | 116° |
| 2026-04-25 15:55 | 26.71227 | -80.39075 | 3032 ft | 221 kts | 116° |
| 2026-04-25 15:55 | 26.70549 | -80.37524 | 3028 ft | 223 kts | 116° |
| 2026-04-25 15:55 | 26.69865 | -80.35960 | 3018 ft | 224 kts | 116° |
| 2026-04-25 15:56 | 26.69349 | -80.34367 | 2979 ft | 224 kts | 102° |
| 2026-04-25 15:56 | 26.69178 | -80.32731 | 2858 ft | 226 kts | 95° |
| 2026-04-25 15:56 | 26.69129 | -80.30874 | 2710 ft | 223 kts | 92° |
| 2026-04-25 15:56 | 26.69088 | -80.29197 | 2565 ft | 209 kts | 92° |
| 2026-04-25 15:57 | 26.69039 | -80.27628 | 2451 ft | 193 kts | 93° |
| 2026-04-25 15:57 | 26.68985 | -80.26208 | 2323 ft | 178 kts | 94° |
| 2026-04-25 15:57 | 26.68930 | -80.24879 | 2220 ft | 167 kts | 94° |
| 2026-04-25 15:57 | 26.68875 | -80.23597 | 2132 ft | 162 kts | 94° |
| 2026-04-25 15:58 | 26.68821 | -80.22342 | 2071 ft | 161 kts | 94° |
| 2026-04-25 15:58 | 26.68767 | -80.21103 | 1910 ft | 159 kts | 94° |
| 2026-04-25 15:58 | 26.68714 | -80.19875 | 1703 ft | 157 kts | 94° |
| 2026-04-25 15:58 | 26.68661 | -80.18664 | 1494 ft | 154 kts | 94° |
| 2026-04-25 15:59 | 26.68609 | -80.17479 | 1290 ft | 151 kts | 94° |
| 2026-04-25 15:59 | 26.68559 | -80.16313 | 1090 ft | 150 kts | 94° |
| 2026-04-25 15:59 | 26.68510 | -80.15147 | 896 ft | 150 kts | 94° |
| 2026-04-25 15:59 | 26.68468 | -80.13998 | 698 ft | 149 kts | 94° |
| 2026-04-25 16:00 | 26.68416 | -80.12840 | 497 ft | 149 kts | 95° |
| 2026-04-25 16:00 | 26.68395 | -80.12451 | 430 ft | 149 kts | 95° |
| 2026-04-25 16:00 | 26.68308 | -80.10514 | 79 ft | 148 kts | 95° |
| 2026-04-25 16:00 | 26.68261 | -80.09428 | 29 ft | 131 kts | 94° |
| 2026-04-25 16:01 | 26.68227 | -80.08683 | 27 ft | 58 kts | 93° |
| 2026-04-25 16:01 | 26.68214 | -80.08395 | 27 ft | 27 kts | 92° |
| 2026-04-25 16:01 | 26.68207 | -80.08214 | 27 ft | 18 kts | 93° |
| 2026-04-25 16:01 | 26.68253 | -80.08160 | 27 ft | 10 kts | 5° |
| 2026-04-25 16:02 | 26.68304 | -80.08164 | 27 ft | 5 kts | 321° |
| 2026-04-25 16:02 | 26.68312 | -80.08200 | 27 ft | 5 kts | 271° |
| 2026-04-25 16:02 | 26.68314 | -80.08254 | 27 ft | 10 kts | 273° |
| 2026-04-25 16:02 | 26.68319 | -80.08359 | 27 ft | 17 kts | 272° |
| 2026-04-25 16:03 | 26.68327 | -80.08508 | 27 ft | 22 kts | 275° |
| 2026-04-25 16:03 | 26.68334 | -80.08684 | 27 ft | 22 kts | 272° |
| 2026-04-25 16:03 | 26.68342 | -80.08853 | 27 ft | 21 kts | 272° |
| 2026-04-25 16:03 | 26.68350 | -80.09016 | 27 ft | 20 kts | 273° |
| 2026-04-25 16:04 | 26.68357 | -80.09163 | 27 ft | 19 kts | 272° |
| 2026-04-25 16:04 | 26.68368 | -80.09310 | 27 ft | 19 kts | 295° |
| 2026-04-25 16:04 | 26.68452 | -80.09391 | 27 ft | 13 kts | 19° |
| 2026-04-25 16:04 | 26.68504 | -80.09353 | 27 ft | 8 kts | 12° |
| 2026-04-25 16:05 | 26.68555 | -80.09353 | 27 ft | 8 kts | 57° |
| 2026-04-25 16:05 | 26.68559 | -80.09296 | 27 ft | 8 kts | 45° |
| 2026-04-25 16:05 | 26.68602 | -80.09259 | 27 ft | 2 kts | 326° |
| 2026-04-25 16:06 | 26.68610 | -80.09271 | 27 ft | 1 kts | 301° |
| 2026-04-25 16:06 | 26.68615 | -80.09276 | 27 ft | 1 kts | 321° |
| 2026-04-25 16:06 | 26.68622 | -80.09281 | 27 ft | 1 kts | 329° |
| 2026-04-25 16:06 | 26.68631 | -80.09286 | 27 ft | 1 kts | 338° |
| 2026-04-25 16:07 | 26.68635 | -80.09287 | 27 ft | 0 kts | 338° |